createdAt,value
2023-04-02T00:00:19.618Z,10.37
2023-04-02T00:02:50.575Z,10.43
2023-04-02T00:05:51.483Z,10.44
2023-04-02T00:08:27.669Z,10.16
2023-04-02T00:10:58.275Z,10.37
2023-04-02T00:13:35.679Z,10.39
2023-04-02T00:16:07.223Z,10.31
2023-04-02T00:18:40.096Z,10.32
2023-04-02T00:21:14.806Z,10.42
2023-04-02T00:23:45.018Z,10.36
2023-04-02T00:26:31.249Z,10.10
2023-04-02T00:28:59.501Z,10.07
2023-04-02T00:31:28.302Z,9.28
2023-04-02T00:33:57.111Z,9.97
2023-04-02T00:36:30.191Z,9.79
2023-04-02T00:39:01.133Z,9.89
2023-04-02T00:41:36.195Z,9.92
2023-04-02T00:44:05.988Z,9.91
2023-04-02T00:46:47.105Z,9.90
2023-04-02T00:49:23.043Z,9.93
2023-04-02T00:51:56.413Z,9.93
2023-04-02T00:54:29.410Z,9.83
2023-04-02T00:56:59.621Z,9.87
2023-04-02T00:59:30.824Z,9.81
2023-04-02T01:02:02.812Z,9.80
2023-04-02T01:04:34.659Z,9.76
2023-04-02T01:07:09.324Z,9.69
2023-04-02T01:09:56.519Z,9.82
2023-04-02T01:12:35.982Z,9.86
2023-04-02T01:15:13.453Z,9.67
2023-04-02T01:18:04.769Z,9.72
2023-04-02T01:20:55.290Z,9.77
2023-04-02T01:23:30.913Z,9.76
2023-04-02T01:26:10.156Z,9.89
2023-04-02T01:28:58.245Z,9.85
2023-04-02T01:31:27.831Z,9.82
2023-04-02T01:33:56.806Z,8.85
2023-04-02T01:36:33.764Z,9.83
2023-04-02T01:39:10.787Z,9.77
2023-04-02T01:41:46.466Z,9.82
2023-04-02T01:44:22.694Z,9.62
2023-04-02T01:46:51.206Z,9.78
2023-04-02T01:49:22.623Z,9.66
2023-04-02T01:51:55.033Z,9.63
2023-04-02T01:54:24.370Z,9.50
2023-04-02T01:56:53.187Z,9.50
2023-04-02T01:59:24.491Z,9.45
2023-04-02T02:01:58.512Z,9.40
2023-04-02T02:04:27.239Z,9.41
2023-04-02T02:06:58.680Z,9.42
2023-04-02T02:09:30.176Z,8.94
2023-04-02T02:11:59.781Z,9.52
2023-04-02T02:14:30.940Z,8.74
2023-04-02T02:17:02.504Z,9.35
2023-04-02T02:19:35.815Z,8.88
2023-04-02T02:22:13.311Z,8.56
2023-04-02T02:24:42.383Z,8.87
2023-04-02T02:27:40.660Z,8.45
2023-04-02T02:30:16.747Z,8.95
2023-04-02T02:32:52.313Z,9.02
2023-04-02T02:35:23.820Z,8.98
2023-04-02T02:37:58.346Z,8.89
2023-04-02T02:40:33.206Z,8.96
2023-04-02T02:43:04.467Z,8.64
2023-04-02T02:45:38.818Z,8.44
2023-04-02T02:48:13.199Z,8.52
2023-04-02T02:50:42.476Z,8.50
2023-04-02T02:53:19.209Z,8.58
2023-04-02T02:55:51.214Z,8.27
2023-04-02T02:58:23.623Z,8.03
2023-04-02T03:00:53.328Z,8.62
2023-04-02T03:03:24.564Z,8.66
2023-04-02T03:05:56.541Z,8.42
2023-04-02T03:08:31.506Z,8.38
2023-04-02T03:11:06.508Z,8.35
2023-04-02T03:13:36.994Z,5.98
2023-04-02T03:16:12.973Z,8.23
2023-04-02T03:18:47.464Z,8.35
2023-04-02T03:21:25.875Z,8.25
2023-04-02T03:23:58.551Z,8.44
2023-04-02T03:26:31.982Z,8.50
2023-04-02T03:29:04.214Z,8.52
2023-04-02T03:31:39.310Z,8.39
2023-04-02T03:34:14.234Z,8.29
2023-04-02T03:36:49.893Z,8.15
2023-04-02T03:39:24.219Z,8.27
2023-04-02T03:41:57.028Z,8.36
2023-04-02T03:44:30.370Z,8.37
2023-04-02T03:47:05.895Z,8.40
2023-04-02T03:49:42.535Z,8.31
2023-04-02T03:52:12.915Z,8.38
2023-04-02T03:54:53.106Z,8.18
2023-04-02T03:57:30.660Z,8.38
2023-04-02T04:00:05.184Z,8.16
2023-04-02T04:02:43.854Z,8.06
2023-04-02T04:05:24.295Z,8.19
2023-04-02T04:07:54.820Z,8.25
2023-04-02T04:10:27.064Z,8.14
2023-04-02T04:12:58.719Z,8.02
2023-04-02T04:15:30.427Z,7.93
2023-04-02T04:18:06.374Z,7.98
2023-04-02T04:20:46.227Z,7.99
2023-04-02T04:23:25.975Z,7.90
2023-04-02T04:25:59.965Z,7.92
2023-04-02T04:28:32.985Z,7.34
2023-04-02T04:31:06.944Z,7.98
2023-04-02T04:33:42.885Z,7.99
2023-04-02T04:36:28.995Z,7.55
2023-04-02T04:39:01.650Z,8.09
2023-04-02T04:41:34.125Z,8.09
2023-04-02T04:44:08.188Z,7.95
2023-04-02T04:46:41.989Z,7.71
2023-04-02T04:49:16.182Z,7.94
2023-04-02T04:51:49.384Z,8.00
2023-04-02T04:54:18.706Z,7.97
2023-04-02T04:56:49.643Z,8.04
2023-04-02T04:59:23.179Z,8.02
2023-04-02T05:01:58.873Z,8.08
2023-04-02T05:04:34.777Z,7.82
2023-04-02T05:07:07.440Z,7.39
2023-04-02T05:09:41.743Z,7.87
2023-04-02T05:12:19.625Z,8.04
2023-04-02T05:14:53.327Z,8.08
2023-04-02T05:17:27.222Z,7.97
2023-04-02T05:20:00.985Z,8.13
2023-04-02T05:22:38.850Z,8.05
2023-04-02T05:25:19.973Z,8.25
2023-04-02T05:27:52.741Z,8.32
2023-04-02T05:30:46.788Z,8.33
2023-04-02T05:33:23.638Z,8.53
2023-04-02T05:35:59.504Z,8.56
2023-04-02T05:38:29.914Z,8.71
2023-04-02T05:41:03.337Z,8.61
2023-04-02T05:43:34.807Z,8.63
2023-04-02T05:46:05.673Z,8.56
2023-04-02T05:48:36.634Z,8.42
2023-04-02T05:51:07.459Z,8.43
2023-04-02T05:53:36.321Z,8.42
2023-04-02T05:56:07.232Z,8.50
2023-04-02T05:58:38.293Z,8.48
2023-04-02T06:01:17.649Z,8.52
2023-04-02T06:03:49.031Z,8.63
2023-04-02T06:06:20.296Z,8.71
2023-04-02T06:08:51.971Z,8.83
2023-04-02T06:11:22.462Z,8.85
2023-04-02T06:13:50.729Z,8.48
2023-04-02T06:16:19.579Z,9.01
2023-04-02T06:18:47.897Z,9.14
2023-04-02T06:21:22.025Z,9.05
2023-04-02T06:23:56.843Z,9.13
2023-04-02T06:26:28.717Z,9.21
2023-04-02T06:29:02.619Z,9.12
2023-04-02T06:31:38.243Z,9.53
2023-04-02T06:34:12.573Z,9.61
2023-04-02T06:36:42.645Z,9.70
2023-04-02T06:39:18.550Z,9.80
2023-04-02T06:41:46.999Z,9.87
2023-04-02T06:44:19.800Z,9.71
2023-04-02T06:46:52.634Z,9.67
2023-04-02T06:49:25.509Z,10.15
2023-04-02T06:51:57.090Z,9.98
2023-04-02T06:54:25.265Z,10.04
2023-04-02T06:56:56.413Z,10.09
2023-04-02T06:59:28.632Z,10.05
2023-04-02T07:02:04.211Z,9.64
2023-04-02T07:04:33.697Z,9.87
2023-04-02T07:07:06.457Z,10.33
2023-04-02T07:09:34.713Z,9.81
2023-04-02T07:12:03.756Z,10.54
2023-04-02T07:14:32.547Z,8.65
2023-04-02T07:17:01.287Z,10.69
2023-04-02T07:19:29.755Z,10.69
2023-04-02T07:21:58.110Z,10.75
2023-04-02T07:24:27.669Z,10.75
2023-04-02T07:26:56.144Z,10.84
2023-04-02T07:29:24.629Z,10.79
2023-04-02T07:31:54.078Z,11.04
2023-04-02T07:34:22.352Z,11.00
2023-04-02T07:36:50.474Z,11.22
2023-04-02T07:39:18.627Z,11.16
2023-04-02T07:41:56.848Z,11.17
2023-04-02T07:44:25.050Z,11.33
2023-04-02T07:46:53.266Z,11.43
2023-04-02T07:49:21.531Z,11.54
2023-04-02T07:51:50.953Z,11.26
2023-04-02T07:54:19.270Z,11.66
2023-04-02T07:56:47.511Z,11.68
2023-04-02T07:59:17.103Z,11.74
2023-04-02T08:01:45.345Z,11.82
2023-04-02T08:04:20.134Z,11.78
2023-04-02T08:06:49.778Z,11.96
2023-04-02T08:09:18.603Z,12.09
2023-04-02T08:11:47.021Z,12.14
2023-04-02T08:14:16.594Z,11.48
2023-04-02T08:16:49.401Z,12.29
2023-04-02T08:19:18.225Z,12.25
2023-04-02T08:21:48.185Z,12.19
2023-04-02T08:24:19.155Z,12.24
2023-04-02T08:26:47.722Z,12.25
2023-04-02T08:29:17.491Z,12.21
2023-04-02T08:31:45.683Z,12.40
2023-04-02T08:34:14.165Z,12.43
2023-04-02T08:36:46.048Z,12.57
2023-04-02T08:39:14.759Z,12.44
2023-04-02T08:41:48.487Z,12.91
2023-04-02T08:44:44.519Z,12.91
2023-04-02T08:47:15.574Z,12.97
2023-04-02T08:49:51.042Z,13.02
2023-04-02T08:52:23.485Z,13.29
2023-04-02T08:54:51.953Z,13.33
2023-04-02T08:57:33.225Z,13.64
2023-04-02T09:00:10.952Z,13.49
2023-04-02T09:02:41.805Z,14.00
2023-04-02T09:05:19.948Z,14.02
2023-04-02T09:07:49.478Z,14.20
2023-04-02T09:10:18.918Z,14.31
2023-04-02T09:12:53.261Z,14.48
2023-04-02T09:15:37.356Z,14.71
2023-04-02T09:18:15.610Z,14.86
2023-04-02T09:20:44.633Z,14.81
2023-04-02T09:23:18.037Z,14.83
2023-04-02T09:26:01.355Z,14.81
2023-04-02T09:28:32.928Z,14.82
2023-04-02T09:31:18.238Z,14.87
2023-04-02T09:33:49.233Z,14.77
2023-04-02T09:36:44.321Z,15.25
2023-04-02T09:39:19.593Z,15.35
2023-04-02T09:41:59.145Z,15.35
2023-04-02T09:44:33.970Z,15.44
2023-04-02T09:47:05.237Z,15.47
2023-04-02T09:49:35.710Z,15.45
2023-04-02T09:52:28.224Z,15.77
2023-04-02T09:55:23.066Z,15.83
2023-04-02T09:57:53.544Z,15.85
2023-04-02T10:00:31.930Z,15.94
2023-04-02T10:03:07.694Z,15.90
2023-04-02T10:05:40.464Z,15.93
2023-04-02T10:08:19.130Z,15.96
2023-04-02T10:10:51.168Z,15.98
2023-04-02T10:13:25.751Z,16.11
2023-04-02T10:15:59.442Z,15.82
2023-04-02T10:18:40.176Z,16.46
2023-04-02T10:21:12.860Z,16.24
2023-04-02T10:23:41.935Z,16.40
2023-04-02T10:26:39.401Z,16.53
2023-04-02T10:29:35.383Z,16.38
2023-04-02T10:32:10.320Z,16.40
2023-04-02T10:34:47.585Z,16.56
2023-04-02T10:37:40.989Z,16.66
2023-04-02T10:40:13.908Z,16.88
2023-04-02T10:42:51.220Z,17.08
2023-04-02T10:45:33.076Z,17.34
2023-04-02T10:48:11.092Z,17.33
2023-04-02T10:50:51.003Z,17.16
2023-04-02T10:53:20.541Z,17.19
2023-04-02T10:55:54.389Z,17.14
2023-04-02T10:58:26.689Z,17.31
2023-04-02T11:00:59.982Z,17.33
2023-04-02T11:03:37.068Z,17.05
2023-04-02T11:06:18.336Z,17.15
2023-04-02T11:08:49.019Z,16.98
2023-04-02T11:11:22.721Z,16.80
2023-04-02T11:13:56.558Z,16.67
2023-04-02T11:16:26.023Z,16.69
2023-04-02T11:19:28.287Z,17.09
2023-04-02T11:22:02.015Z,17.24
2023-04-02T11:24:40.680Z,17.36
2023-04-02T11:27:17.198Z,17.51
2023-04-02T11:29:46.998Z,17.55
2023-04-02T11:32:27.654Z,17.55
2023-04-02T11:35:15.337Z,17.55
2023-04-02T11:37:46.505Z,17.34
2023-04-02T11:40:48.331Z,17.41
2023-04-02T11:43:51.500Z,17.51
2023-04-02T11:46:49.349Z,17.59
2023-04-02T11:49:44.924Z,17.77
2023-04-02T11:52:28.840Z,17.72
2023-04-02T11:55:02.587Z,17.63
2023-04-02T11:58:07.374Z,17.85
2023-04-02T12:01:01.323Z,17.81
2023-04-02T12:03:52.809Z,17.67
2023-04-02T12:06:28.496Z,17.75
2023-04-02T12:09:08.076Z,17.69
2023-04-02T12:11:40.964Z,17.46
2023-04-02T12:14:46.840Z,17.39
2023-04-02T12:17:19.691Z,17.32
2023-04-02T12:19:49.866Z,17.14
2023-04-02T12:22:23.251Z,17.37
2023-04-02T12:24:52.142Z,17.21
2023-04-02T12:27:24.584Z,17.20
2023-04-02T12:29:52.837Z,17.14
2023-04-02T12:32:27.756Z,17.34
2023-04-02T12:34:59.088Z,17.48
2023-04-02T12:37:29.379Z,17.63
2023-04-02T12:39:59.675Z,17.62
2023-04-02T12:42:32.109Z,17.82
2023-04-02T12:45:00.856Z,17.86
2023-04-02T12:47:29.821Z,17.78
2023-04-02T12:49:59.846Z,17.82
2023-04-02T12:52:30.638Z,17.55
2023-04-02T12:55:00.895Z,17.58
2023-04-02T12:57:49.187Z,17.22
2023-04-02T13:00:37.258Z,17.26
2023-04-02T13:03:21.342Z,17.13
2023-04-02T13:05:55.656Z,17.06
2023-04-02T13:08:27.337Z,16.39
2023-04-02T13:10:58.029Z,16.91
2023-04-02T13:13:35.515Z,16.32
2023-04-02T13:16:36.448Z,16.77
2023-04-02T13:19:12.850Z,16.58
2023-04-02T13:21:41.011Z,16.30
2023-04-02T13:24:19.018Z,16.07
2023-04-02T13:26:49.660Z,15.91
2023-04-02T13:29:24.507Z,15.73
2023-04-02T13:31:53.551Z,15.33
2023-04-02T13:34:21.778Z,15.49
2023-04-02T13:36:50.250Z,15.44
2023-04-02T13:39:19.482Z,15.25
2023-04-02T13:41:50.069Z,15.40
2023-04-02T13:44:25.382Z,15.57
2023-04-02T13:46:55.003Z,15.74
2023-04-02T13:49:24.261Z,15.98
2023-04-02T13:51:54.068Z,16.05
2023-04-02T13:54:27.549Z,16.38
2023-04-02T13:56:57.248Z,16.59
2023-04-02T13:59:28.389Z,16.67
2023-04-02T14:01:59.936Z,16.93
2023-04-02T14:04:33.905Z,17.25
2023-04-02T14:07:34.596Z,17.36
2023-04-02T14:10:15.591Z,17.44
2023-04-02T14:12:55.330Z,17.36
2023-04-02T14:15:40.861Z,17.48
2023-04-02T14:18:27.577Z,16.82
2023-04-02T14:21:04.078Z,18.04
2023-04-02T14:23:45.166Z,18.10
2023-04-02T14:26:22.818Z,18.14
2023-04-02T14:28:59.517Z,18.14
2023-04-02T14:31:35.301Z,18.41
2023-04-02T14:34:09.936Z,18.44
2023-04-02T14:36:47.645Z,17.96
2023-04-02T14:39:24.127Z,17.34
2023-04-02T14:41:59.339Z,17.56
2023-04-02T14:44:31.625Z,17.86
2023-04-02T14:47:09.884Z,18.28
2023-04-02T14:49:42.980Z,17.81
2023-04-02T14:52:15.165Z,18.33
2023-04-02T14:54:51.888Z,17.84
2023-04-02T14:57:24.204Z,17.44
2023-04-02T14:59:59.771Z,17.20
2023-04-02T15:02:41.698Z,16.87
2023-04-02T15:05:17.808Z,16.49
2023-04-02T15:07:51.680Z,16.24
2023-04-02T15:10:27.729Z,16.05
2023-04-02T15:12:58.041Z,16.00
2023-04-02T15:15:40.432Z,15.03
2023-04-02T15:18:15.462Z,15.08
2023-04-02T15:20:50.471Z,15.86
2023-04-02T15:23:30.630Z,15.84
2023-04-02T15:26:11.469Z,15.80
2023-04-02T15:28:44.922Z,15.80
2023-04-02T15:31:15.623Z,15.63
2023-04-02T15:33:46.836Z,15.54
2023-04-02T15:36:43.149Z,15.60
2023-04-02T15:39:28.249Z,15.33
2023-04-02T15:42:06.335Z,15.50
2023-04-02T15:44:37.856Z,15.38
2023-04-02T15:47:15.809Z,15.32
2023-04-02T15:49:53.132Z,15.07
2023-04-02T15:52:30.306Z,14.50
2023-04-02T15:55:11.580Z,14.98
2023-04-02T15:57:58.211Z,15.08
2023-04-02T16:00:31.790Z,15.02
2023-04-02T16:03:41.997Z,14.97
2023-04-02T16:06:25.430Z,14.92
2023-04-02T16:09:19.150Z,14.75
2023-04-02T16:11:47.259Z,14.81
2023-04-02T16:14:25.696Z,14.77
2023-04-02T16:16:57.181Z,14.73
2023-04-02T16:19:33.307Z,14.66
2023-04-02T16:22:08.824Z,14.76
2023-04-02T16:24:36.936Z,14.36
2023-04-02T16:27:18.971Z,14.60
2023-04-02T16:29:59.916Z,14.73
2023-04-02T16:32:46.755Z,14.71
2023-04-02T16:38:10.137Z,14.61
2023-04-02T16:40:43.398Z,14.56
2023-04-02T16:43:23.322Z,14.57
2023-04-02T16:46:01.393Z,14.52
2023-04-02T16:48:42.495Z,14.59
2023-04-02T16:51:21.278Z,14.54
2023-04-02T16:54:02.060Z,14.44
2023-04-02T16:56:51.256Z,14.32
2023-04-02T16:59:25.888Z,14.14
2023-04-02T17:02:01.669Z,14.01
2023-04-02T17:04:58.083Z,13.95
2023-04-02T17:07:36.201Z,13.76
2023-04-02T17:10:21.810Z,13.66
2023-04-02T17:12:58.222Z,13.28
2023-04-02T17:15:29.692Z,13.72
2023-04-02T17:17:59.883Z,13.69
2023-04-02T17:20:28.264Z,13.64
2023-04-02T17:22:57.601Z,13.60
2023-04-02T17:25:31.372Z,12.54
2023-04-02T17:27:59.497Z,13.49
2023-04-02T17:30:40.605Z,13.23
2023-04-02T17:33:27.463Z,13.32
2023-04-02T17:36:16.451Z,13.20
2023-04-02T17:38:54.132Z,12.84
2023-04-02T17:41:33.124Z,13.11
2023-04-02T17:44:16.570Z,13.09
2023-04-02T17:46:52.214Z,13.12
2023-04-02T17:49:27.567Z,13.08
2023-04-02T17:52:02.357Z,13.04
2023-04-02T17:54:42.725Z,13.03
2023-04-02T17:57:25.545Z,13.04
2023-04-02T18:00:18.064Z,12.78
2023-04-02T18:03:06.296Z,12.72
2023-04-02T18:05:43.806Z,12.90
2023-04-02T18:08:24.296Z,12.72
2023-04-02T18:11:01.961Z,12.45
2023-04-02T18:13:36.227Z,12.81
2023-04-02T18:16:36.942Z,12.75
2023-04-02T18:19:16.406Z,12.57
2023-04-02T18:21:51.556Z,12.30
2023-04-02T18:24:31.978Z,12.56
2023-04-02T18:27:13.901Z,12.55
2023-04-02T18:29:51.874Z,11.58
2023-04-02T18:32:40.432Z,12.48
2023-04-02T18:35:16.908Z,12.43
2023-04-02T18:37:59.424Z,12.24
2023-04-02T18:40:43.458Z,12.23
2023-04-02T18:43:27.181Z,12.26
2023-04-02T18:46:06.608Z,12.23
2023-04-02T18:48:44.180Z,12.15
2023-04-02T18:51:18.422Z,12.15
2023-04-02T18:53:47.962Z,12.05
2023-04-02T18:56:19.850Z,12.03
2023-04-02T18:58:57.265Z,11.07
2023-04-02T19:01:34.012Z,11.95
2023-04-02T19:04:05.667Z,11.80
2023-04-02T19:06:38.478Z,11.69
2023-04-02T19:09:14.105Z,11.92
2023-04-02T19:11:42.374Z,11.90
2023-04-02T19:14:15.004Z,11.92
2023-04-02T19:17:01.705Z,11.87
2023-04-02T19:19:35.914Z,11.81
2023-04-02T19:22:16.788Z,11.79
2023-04-02T19:25:02.541Z,11.52
2023-04-02T19:27:38.216Z,11.73
2023-04-02T19:30:28.041Z,11.70
2023-04-02T19:33:06.648Z,11.56
2023-04-02T19:35:43.163Z,11.62
2023-04-02T19:38:25.187Z,11.59
2023-04-02T19:41:00.090Z,10.89
2023-04-02T19:43:28.404Z,11.36
2023-04-02T19:45:56.945Z,11.51
2023-04-02T19:48:28.529Z,11.52
2023-04-02T19:50:56.875Z,11.34
2023-04-02T19:53:25.116Z,11.34
2023-04-02T19:55:53.319Z,11.45
2023-04-02T19:58:27.676Z,11.34
2023-04-02T20:00:56.154Z,11.20
2023-04-02T20:03:24.790Z,11.28
2023-04-02T20:05:55.061Z,11.25
2023-04-02T20:08:23.441Z,11.22
2023-04-02T20:10:51.830Z,11.08
2023-04-02T20:13:20.003Z,11.13
2023-04-02T20:15:49.416Z,11.05
2023-04-02T20:18:17.748Z,10.89
2023-04-02T20:20:47.134Z,10.87
2023-04-02T20:23:17.711Z,10.84
2023-04-02T20:25:46.935Z,10.80
2023-04-02T20:28:15.466Z,10.78
2023-04-02T20:30:43.670Z,10.81
2023-04-02T20:33:12.182Z,10.77
2023-04-02T20:35:41.401Z,10.72
2023-04-02T20:38:09.729Z,10.69
2023-04-02T20:40:40.631Z,10.52
2023-04-02T20:43:29.885Z,10.64
2023-04-02T20:45:59.892Z,10.48
2023-04-02T20:48:31.282Z,10.48
2023-04-02T20:51:05.088Z,10.50
2023-04-02T20:53:34.956Z,10.29
2023-04-02T20:56:06.919Z,10.32
2023-04-02T20:58:36.436Z,10.00
2023-04-02T21:01:10.063Z,9.97
2023-04-02T21:03:39.942Z,10.09
2023-04-02T21:06:13.316Z,9.59
2023-04-02T21:08:41.613Z,10.03
2023-04-02T21:11:12.190Z,9.00
2023-04-02T21:13:44.404Z,10.14
2023-04-02T21:16:21.400Z,10.06
2023-04-02T21:18:51.316Z,9.98
2023-04-02T21:21:21.330Z,9.94
2023-04-02T21:23:54.236Z,9.46
2023-04-02T21:26:24.467Z,9.55
2023-04-02T21:28:52.659Z,9.71
2023-04-02T21:31:22.939Z,9.61
2023-04-02T21:33:53.764Z,9.59
2023-04-02T21:36:24.414Z,9.40
2023-04-02T21:38:55.180Z,9.39
2023-04-02T21:41:26.502Z,9.49
2023-04-02T21:43:55.513Z,9.42
2023-04-02T21:46:25.827Z,9.39
2023-04-02T21:48:56.077Z,8.97
2023-04-02T21:51:26.049Z,9.27
2023-04-02T21:53:55.428Z,9.09
2023-04-02T21:56:27.226Z,8.42
2023-04-02T21:58:56.850Z,9.11
2023-04-02T22:01:28.227Z,9.09
2023-04-02T22:03:57.708Z,9.06
2023-04-02T22:06:28.053Z,8.96
2023-04-02T22:08:58.309Z,8.88
2023-04-02T22:11:30.602Z,8.82
2023-04-02T22:13:58.976Z,8.80
2023-04-02T22:16:29.600Z,8.72
2023-04-02T22:18:59.590Z,8.68
2023-04-02T22:21:28.266Z,8.58
2023-04-02T22:23:57.010Z,8.44
2023-04-02T22:26:25.184Z,8.43
2023-04-02T22:28:54.856Z,8.51
2023-04-02T22:31:25.134Z,8.46
2023-04-02T22:33:54.199Z,8.29
2023-04-02T22:36:23.263Z,8.22
2023-04-02T22:38:51.995Z,8.33
2023-04-02T22:41:22.715Z,8.32
2023-04-02T22:43:51.243Z,8.32
2023-04-02T22:46:21.341Z,8.32
2023-04-02T22:48:50.469Z,8.30
2023-04-02T22:51:20.846Z,8.23
2023-04-02T22:53:50.034Z,8.15
2023-04-02T22:56:22.142Z,7.99
2023-04-02T22:58:50.420Z,8.08
2023-04-02T23:01:22.154Z,7.69
2023-04-02T23:03:50.829Z,6.80
2023-04-02T23:06:19.650Z,7.97
2023-04-02T23:08:48.236Z,7.37
2023-04-02T23:11:18.681Z,8.29
2023-04-02T23:13:49.284Z,7.89
2023-04-02T23:16:18.144Z,8.36
2023-04-02T23:18:48.528Z,8.32
2023-04-02T23:21:17.579Z,7.30
2023-04-02T23:23:46.184Z,7.44
2023-04-02T23:26:16.422Z,7.69
2023-04-02T23:28:45.063Z,7.83
2023-04-02T23:31:20.282Z,7.78
2023-04-02T23:33:50.157Z,7.05
2023-04-02T23:36:22.428Z,7.50
2023-04-02T23:38:55.188Z,7.63
2023-04-02T23:41:24.948Z,7.56
2023-04-02T23:43:53.229Z,7.54
2023-04-02T23:46:22.612Z,7.37
2023-04-02T23:48:54.555Z,7.46
2023-04-02T23:51:23.385Z,7.43
2023-04-02T23:53:52.290Z,7.40
2023-04-02T23:56:21.834Z,7.23
2023-04-02T23:58:50.847Z,7.36
